createdAt,value
2023-05-19T00:02:13.156Z,7.70
2023-05-19T00:04:48.386Z,8.50
2023-05-19T00:07:25.991Z,7.10
2023-05-19T00:10:00.188Z,8.00
2023-05-19T00:12:34.135Z,7.30
2023-05-19T00:15:10.823Z,7.90
2023-05-19T00:17:44.240Z,8.20
2023-05-19T00:20:18.273Z,6.80
2023-05-19T00:22:52.655Z,7.60
2023-05-19T00:25:26.357Z,9.20
2023-05-19T00:28:00.149Z,8.60
2023-05-19T00:30:33.903Z,7.20
2023-05-19T00:33:07.657Z,9.40
2023-05-19T00:35:41.739Z,8.40
2023-05-19T00:38:15.082Z,8.60
2023-05-19T00:40:48.708Z,8.50
2023-05-19T00:43:21.955Z,8.50
2023-05-19T00:45:55.388Z,10.20
2023-05-19T00:48:29.568Z,8.00
2023-05-19T00:51:06.708Z,8.20
2023-05-19T00:53:40.357Z,7.60
2023-05-19T00:56:13.829Z,7.80
2023-05-19T00:58:47.740Z,7.20
2023-05-19T01:01:21.907Z,8.30
2023-05-19T01:03:57.082Z,6.40
2023-05-19T01:06:30.558Z,7.00
2023-05-19T01:09:04.248Z,6.00
2023-05-19T01:11:37.263Z,8.50
2023-05-19T01:14:10.750Z,8.50
2023-05-19T01:16:49.064Z,6.20
2023-05-19T01:19:46.881Z,6.90
2023-05-19T01:22:38.171Z,8.20
2023-05-19T01:25:43.996Z,8.40
2023-05-19T01:28:54.700Z,6.50
2023-05-19T01:31:29.406Z,7.90
2023-05-19T01:34:05.152Z,8.70
2023-05-19T01:36:40.405Z,7.80
2023-05-19T01:39:14.976Z,8.40
2023-05-19T01:41:49.061Z,6.70
2023-05-19T01:44:23.592Z,8.00
2023-05-19T01:46:57.395Z,7.40
2023-05-19T01:49:30.451Z,8.50
2023-05-19T01:52:03.710Z,7.30
2023-05-19T01:54:37.287Z,7.80
2023-05-19T01:57:26.276Z,6.80
2023-05-19T02:00:16.419Z,7.70
2023-05-19T02:03:06.138Z,7.50
2023-05-19T02:05:44.553Z,8.80
2023-05-19T02:08:26.036Z,8.60
2023-05-19T02:11:04.257Z,8.00
2023-05-19T02:13:45.034Z,7.80
2023-05-19T02:16:20.267Z,7.00
2023-05-19T02:18:54.227Z,8.30
2023-05-19T02:21:27.456Z,10.30
2023-05-19T02:24:01.374Z,8.00
2023-05-19T02:26:34.486Z,8.90
2023-05-19T02:29:10.182Z,7.80
2023-05-19T02:31:43.435Z,8.00
2023-05-19T02:34:16.795Z,7.10
2023-05-19T02:36:50.822Z,8.00
2023-05-19T02:39:24.098Z,10.70
2023-05-19T02:41:57.944Z,8.00
2023-05-19T02:44:31.169Z,7.60
2023-05-19T02:47:04.232Z,8.50
2023-05-19T02:49:38.108Z,8.90
2023-05-19T02:52:12.317Z,9.00
2023-05-19T02:54:46.457Z,10.00
2023-05-19T02:57:19.629Z,8.40
2023-05-19T02:59:53.053Z,8.70
2023-05-19T03:02:26.323Z,8.60
2023-05-19T03:05:01.958Z,10.60
2023-05-19T03:07:35.377Z,8.10
2023-05-19T03:10:10.716Z,9.80
2023-05-19T03:12:43.907Z,10.80
2023-05-19T03:15:17.676Z,8.60
2023-05-19T03:17:51.153Z,10.30
2023-05-19T03:20:24.770Z,9.30
2023-05-19T03:22:58.151Z,9.30
2023-05-19T03:25:31.697Z,10.40
2023-05-19T03:28:05.364Z,10.50
2023-05-19T03:30:39.066Z,10.40
2023-05-19T03:33:17.170Z,9.60
2023-05-19T03:35:51.068Z,11.20
2023-05-19T03:38:24.252Z,9.00
2023-05-19T03:41:02.271Z,10.60
2023-05-19T03:43:35.183Z,10.20
2023-05-19T03:46:09.715Z,10.40
2023-05-19T03:49:03.138Z,8.30
2023-05-19T03:51:59.557Z,10.70
2023-05-19T03:54:39.979Z,9.60
2023-05-19T03:57:13.332Z,10.20
2023-05-19T03:59:46.718Z,11.40
2023-05-19T04:02:19.932Z,10.80
2023-05-19T04:04:54.390Z,10.00
2023-05-19T04:07:27.696Z,9.80
2023-05-19T04:10:00.988Z,9.20
2023-05-19T04:12:34.576Z,11.40
2023-05-19T04:15:11.542Z,8.90
2023-05-19T04:17:45.728Z,10.90
2023-05-19T04:20:18.999Z,11.40
2023-05-19T04:22:52.338Z,10.20
2023-05-19T04:25:25.793Z,9.50
2023-05-19T04:27:59.333Z,8.90
2023-05-19T04:30:33.950Z,12.10
2023-05-19T04:33:07.938Z,8.20
2023-05-19T04:35:41.678Z,7.10
2023-05-19T04:38:19.143Z,9.60
2023-05-19T04:40:53.461Z,8.40
2023-05-19T04:43:28.718Z,8.50
2023-05-19T04:46:06.431Z,7.00
2023-05-19T04:48:40.266Z,8.20
2023-05-19T04:51:14.630Z,8.10
2023-05-19T04:53:48.401Z,7.60
2023-05-19T04:56:22.251Z,8.50
2023-05-19T04:58:56.722Z,7.60
2023-05-19T05:01:31.587Z,7.40
2023-05-19T05:04:17.300Z,7.70
2023-05-19T05:07:36.562Z,7.40
2023-05-19T05:11:07.710Z,8.80
2023-05-19T05:14:21.223Z,7.70
2023-05-19T05:17:16.464Z,7.50
2023-05-19T05:19:51.252Z,8.40
2023-05-19T05:22:25.587Z,10.00
2023-05-19T05:25:00.913Z,7.50
2023-05-19T05:27:34.380Z,7.40
2023-05-19T05:30:09.499Z,7.80
2023-05-19T05:32:43.834Z,8.70
2023-05-19T05:35:27.069Z,8.50
2023-05-19T05:38:01.926Z,7.70
2023-05-19T05:40:35.324Z,10.10
2023-05-19T05:43:09.282Z,7.80
2023-05-19T05:45:47.222Z,7.90
2023-05-19T05:48:21.759Z,9.90
2023-05-19T05:50:58.169Z,10.80
2023-05-19T05:53:36.342Z,9.90
2023-05-19T05:56:12.021Z,10.90
2023-05-19T05:58:51.057Z,9.30
2023-05-19T06:01:24.421Z,8.80
2023-05-19T06:03:58.566Z,10.20
2023-05-19T06:06:33.011Z,10.60
2023-05-19T06:09:07.988Z,10.70
2023-05-19T06:11:41.238Z,10.30
2023-05-19T06:14:15.294Z,10.70
2023-05-19T06:19:43.604Z,8.50
2023-05-19T06:22:17.054Z,9.90
2023-05-19T06:24:50.715Z,12.50
2023-05-19T06:27:26.238Z,9.40
2023-05-19T06:29:59.727Z,9.50
2023-05-19T06:32:33.734Z,9.80
2023-05-19T06:35:08.157Z,8.30
2023-05-19T06:37:42.113Z,9.30
2023-05-19T06:40:17.286Z,9.70
2023-05-19T06:42:51.929Z,10.00
2023-05-19T06:45:37.979Z,8.30
2023-05-19T06:48:11.600Z,7.20
2023-05-19T06:50:46.384Z,8.00
2023-05-19T06:53:20.942Z,7.30
2023-05-19T06:55:59.714Z,8.80
2023-05-19T06:58:37.266Z,6.80
2023-05-19T07:01:11.557Z,6.50
2023-05-19T07:03:50.004Z,7.90
2023-05-19T07:06:23.342Z,8.60
2023-05-19T07:08:57.439Z,8.30
2023-05-19T07:11:31.482Z,8.30
2023-05-19T07:14:04.880Z,6.00
2023-05-19T07:16:38.389Z,8.70
2023-05-19T07:19:12.085Z,7.00
2023-05-19T07:21:45.415Z,6.30
2023-05-19T07:24:19.889Z,7.00
2023-05-19T07:26:53.339Z,6.70
2023-05-19T07:29:27.175Z,5.70
2023-05-19T07:32:00.810Z,7.20
2023-05-19T07:34:34.362Z,6.90
2023-05-19T07:37:08.126Z,6.60
2023-05-19T07:39:41.582Z,7.50
2023-05-19T07:42:15.080Z,6.60
2023-05-19T07:44:48.412Z,7.90
2023-05-19T07:47:21.904Z,6.50
2023-05-19T07:49:55.287Z,8.40
2023-05-19T07:52:31.658Z,4.60
2023-05-19T07:55:08.498Z,5.10
2023-05-19T07:57:42.625Z,4.40
2023-05-19T08:00:20.371Z,5.80
2023-05-19T08:02:58.350Z,4.80
2023-05-19T08:05:32.989Z,4.80
2023-05-19T08:08:08.605Z,4.70
2023-05-19T08:10:44.468Z,4.70
2023-05-19T08:13:19.600Z,4.90
2023-05-19T08:16:01.932Z,6.70
2023-05-19T08:18:36.987Z,4.80
2023-05-19T08:21:11.370Z,5.30
2023-05-19T08:23:45.536Z,5.00
2023-05-19T08:26:22.279Z,6.00
2023-05-19T08:28:57.639Z,5.70
2023-05-19T08:31:31.541Z,7.30
2023-05-19T08:34:05.009Z,9.40
2023-05-19T08:36:38.410Z,8.70
2023-05-19T08:39:12.097Z,7.80
2023-05-19T08:41:45.693Z,9.60
2023-05-19T08:44:19.303Z,9.60
2023-05-19T08:46:56.041Z,8.50
2023-05-19T08:49:34.333Z,8.10
2023-05-19T08:52:17.359Z,8.50
2023-05-19T08:54:56.144Z,11.20
2023-05-19T08:57:29.736Z,9.70
2023-05-19T09:00:05.199Z,9.60
2023-05-19T09:02:55.050Z,8.50
2023-05-19T09:05:37.562Z,11.30
2023-05-19T09:10:42.763Z,9.10
2023-05-19T09:13:16.732Z,7.80
2023-05-19T09:15:52.442Z,9.90
2023-05-19T09:21:03.226Z,9.00
2023-05-19T09:23:37.188Z,7.70
2023-05-19T09:26:11.063Z,7.70
2023-05-19T09:28:45.506Z,12.20
2023-05-19T09:31:19.202Z,10.80
2023-05-19T09:33:56.652Z,9.70
2023-05-19T09:36:32.527Z,9.70
2023-05-19T09:39:14.610Z,12.50
2023-05-19T09:41:48.800Z,10.40
2023-05-19T09:44:31.063Z,9.70
2023-05-19T09:47:07.781Z,11.90
2023-05-19T09:49:49.469Z,9.60
2023-05-19T09:52:23.640Z,9.90
2023-05-19T09:54:58.098Z,13.60
2023-05-19T09:57:38.987Z,10.60
2023-05-19T10:00:17.319Z,11.20
2023-05-19T10:02:52.639Z,13.30
2023-05-19T10:05:28.444Z,15.40
2023-05-19T10:08:03.040Z,11.70
2023-05-19T10:10:40.532Z,14.70
2023-05-19T10:13:14.360Z,15.60
2023-05-19T10:15:58.085Z,13.50
2023-05-19T10:18:34.667Z,12.40
2023-05-19T10:21:18.201Z,14.70
2023-05-19T10:23:52.685Z,13.30
2023-05-19T10:26:27.831Z,13.10
2023-05-19T10:29:01.509Z,11.70
2023-05-19T10:31:37.701Z,12.00
2023-05-19T10:34:42.250Z,11.70
2023-05-19T10:37:27.584Z,11.50
2023-05-19T10:40:01.917Z,12.10
2023-05-19T10:42:42.585Z,12.60
2023-05-19T10:45:20.100Z,10.40
2023-05-19T10:47:56.023Z,11.50
2023-05-19T10:50:37.051Z,7.30
2023-05-19T10:53:19.581Z,10.50
2023-05-19T10:55:59.473Z,11.00
2023-05-19T10:58:50.853Z,11.00
2023-05-19T11:01:26.743Z,13.10
2023-05-19T11:04:09.413Z,14.40
2023-05-19T11:07:24.810Z,13.50
2023-05-19T11:12:44.358Z,13.90
2023-05-19T11:15:18.090Z,13.80
2023-05-19T11:17:52.684Z,14.90
2023-05-19T11:20:27.497Z,13.00
2023-05-19T11:23:10.972Z,13.10
2023-05-19T11:25:49.332Z,14.30
2023-05-19T11:28:26.902Z,15.20
2023-05-19T11:31:02.561Z,16.40
2023-05-19T11:33:36.304Z,14.30
2023-05-19T11:36:10.202Z,15.10
2023-05-19T11:38:44.152Z,14.30
2023-05-19T11:41:20.778Z,16.20
2023-05-19T11:43:54.261Z,13.50
2023-05-19T11:46:27.717Z,14.40
2023-05-19T11:49:02.588Z,15.60
2023-05-19T11:51:36.401Z,16.20
2023-05-19T11:54:10.092Z,17.90
2023-05-19T11:56:44.821Z,15.70
2023-05-19T11:59:18.473Z,16.50
2023-05-19T12:01:52.028Z,17.50
2023-05-19T12:04:26.020Z,15.60
2023-05-19T12:07:00.040Z,19.50
2023-05-19T12:09:35.142Z,17.90
2023-05-19T12:12:10.359Z,21.50
2023-05-19T12:14:45.852Z,20.90
2023-05-19T12:17:21.070Z,20.30
2023-05-19T12:19:54.898Z,24.50
2023-05-19T12:22:28.487Z,23.20
2023-05-19T12:25:02.109Z,22.70
2023-05-19T12:27:39.538Z,23.90
2023-05-19T12:30:15.897Z,24.40
2023-05-19T12:32:52.163Z,23.60
2023-05-19T12:35:29.875Z,24.80
2023-05-19T12:38:06.769Z,26.10
2023-05-19T12:40:40.901Z,27.00
2023-05-19T12:43:22.441Z,23.00
2023-05-19T12:45:56.087Z,20.90
2023-05-19T12:48:30.849Z,23.30
2023-05-19T12:51:05.890Z,21.90
2023-05-19T12:53:41.262Z,20.30
2023-05-19T12:56:16.144Z,24.70
2023-05-19T12:58:49.779Z,23.90
2023-05-19T13:01:24.444Z,24.40
2023-05-19T13:03:58.732Z,25.20
2023-05-19T13:06:33.432Z,22.30
2023-05-19T13:09:07.449Z,26.90
2023-05-19T13:11:40.882Z,27.60
2023-05-19T13:14:18.692Z,26.70
2023-05-19T13:16:52.349Z,24.50
2023-05-19T13:19:28.621Z,26.80
2023-05-19T13:24:34.269Z,29.40
2023-05-19T13:27:08.270Z,29.90
2023-05-19T13:29:41.501Z,29.70
2023-05-19T13:32:14.830Z,28.80
2023-05-19T13:34:48.342Z,28.50
2023-05-19T13:37:21.854Z,30.40
2023-05-19T13:39:55.017Z,29.50
2023-05-19T13:42:29.213Z,32.60
2023-05-19T13:45:02.614Z,31.90
2023-05-19T13:47:36.348Z,32.10
2023-05-19T13:50:11.248Z,29.10
2023-05-19T13:52:45.327Z,28.10
2023-05-19T13:55:20.079Z,27.60
2023-05-19T13:57:53.480Z,27.40
2023-05-19T14:00:27.487Z,29.80
2023-05-19T15:42:40.957Z,29.10
2023-05-19T15:45:15.095Z,34.00
2023-05-19T15:47:48.979Z,35.40
2023-05-19T15:50:22.875Z,34.80
2023-05-19T15:52:57.020Z,33.40
2023-05-19T15:55:30.729Z,32.00
2023-05-19T15:58:04.077Z,29.10
2023-05-19T16:00:37.676Z,33.10
2023-05-19T16:03:11.440Z,34.40
2023-05-19T16:05:46.421Z,34.30
2023-05-19T16:08:21.625Z,28.70
2023-05-19T16:10:55.517Z,31.90
2023-05-19T16:13:30.714Z,33.00
2023-05-19T16:16:04.430Z,30.60
2023-05-19T16:18:38.421Z,32.80
2023-05-19T16:21:12.083Z,31.90
2023-05-19T16:23:45.839Z,32.00
2023-05-19T16:26:19.318Z,34.70
2023-05-19T16:28:53.056Z,35.70
2023-05-19T16:31:26.518Z,33.80
2023-05-19T16:34:00.237Z,37.50
2023-05-19T16:36:33.614Z,34.80
2023-05-19T16:39:09.434Z,31.50
2023-05-19T16:41:42.994Z,32.20
2023-05-19T16:44:17.469Z,35.30
2023-05-19T16:46:51.038Z,31.00
2023-05-19T16:49:24.604Z,33.60
2023-05-19T16:51:58.261Z,32.70
2023-05-19T16:54:32.295Z,32.20
2023-05-19T16:57:06.169Z,37.30
2023-05-19T16:59:41.889Z,37.70
2023-05-19T17:02:16.699Z,36.70
2023-05-19T17:04:51.719Z,35.50
2023-05-19T17:07:28.134Z,34.20
2023-05-19T17:10:01.668Z,36.20
2023-05-19T17:12:35.690Z,36.60
2023-05-19T17:15:11.443Z,34.40
2023-05-19T17:20:18.939Z,33.30
2023-05-19T17:22:53.803Z,34.90
2023-05-19T17:25:27.962Z,37.90
2023-05-19T17:28:03.044Z,38.90
2023-05-19T17:30:37.137Z,41.00
2023-05-19T17:33:10.718Z,39.60
2023-05-19T17:35:46.007Z,35.70
2023-05-19T17:38:20.529Z,48.20
2023-05-19T17:40:54.707Z,40.70
2023-05-19T17:43:29.912Z,41.50
2023-05-19T17:46:05.138Z,45.50
2023-05-19T17:48:39.958Z,45.30
2023-05-19T17:51:13.878Z,44.90
2023-05-19T17:53:48.678Z,47.30
2023-05-19T17:56:24.622Z,44.90
2023-05-19T17:58:59.436Z,42.20
2023-05-19T18:01:35.054Z,41.50
2023-05-19T18:04:10.409Z,41.60
2023-05-19T18:06:46.279Z,44.90
2023-05-19T18:09:27.875Z,44.30
2023-05-19T18:12:03.888Z,42.40
2023-05-19T18:14:38.667Z,42.50
2023-05-19T18:17:12.833Z,41.40
2023-05-19T18:19:47.308Z,44.70
2023-05-19T18:22:20.697Z,41.40
2023-05-19T18:24:54.315Z,42.60
2023-05-19T18:27:29.438Z,41.30
2023-05-19T18:30:03.176Z,43.00
2023-05-19T18:32:37.007Z,39.50
2023-05-19T18:35:12.453Z,44.30
2023-05-19T18:37:50.989Z,43.60
2023-05-19T18:40:25.367Z,48.80
2023-05-19T18:42:59.138Z,41.30
2023-05-19T18:45:33.031Z,51.10
2023-05-19T18:48:09.690Z,44.50
2023-05-19T18:50:45.674Z,50.20
2023-05-19T18:53:20.747Z,47.60
2023-05-19T18:55:57.739Z,49.60
2023-05-19T19:01:05.926Z,50.20
2023-05-19T19:03:42.459Z,48.80
2023-05-19T19:06:17.481Z,53.00
2023-05-19T19:08:51.132Z,46.50
2023-05-19T19:11:24.637Z,50.80
2023-05-19T19:13:59.525Z,50.50
2023-05-19T19:16:33.479Z,55.40
2023-05-19T19:19:07.923Z,53.70
2023-05-19T19:21:41.872Z,48.40
2023-05-19T19:24:15.369Z,49.70
2023-05-19T19:26:49.220Z,46.60
2023-05-19T19:29:22.958Z,49.90
2023-05-19T19:31:56.564Z,52.20
2023-05-19T19:34:30.689Z,48.70
2023-05-19T19:37:04.432Z,53.60
2023-05-19T19:39:44.211Z,53.40
2023-05-19T19:42:20.253Z,55.00
2023-05-19T19:45:00.306Z,51.50
2023-05-19T19:47:40.529Z,51.80
2023-05-19T19:50:16.730Z,57.00
2023-05-19T19:52:52.113Z,52.40
2023-05-19T19:55:29.839Z,50.40
2023-05-19T19:58:09.103Z,51.70
2023-05-19T20:00:43.944Z,49.70
2023-05-19T20:03:19.800Z,49.50
2023-05-19T20:05:58.956Z,50.90
2023-05-19T20:08:37.340Z,55.10
2023-05-19T20:11:15.589Z,52.80
2023-05-19T20:13:53.698Z,53.90
2023-05-19T20:16:30.167Z,54.70
2023-05-19T20:19:09.306Z,51.40
2023-05-19T20:21:47.480Z,52.20
2023-05-19T20:24:25.026Z,54.00
2023-05-19T20:27:03.192Z,52.10
2023-05-19T20:29:40.228Z,50.30
2023-05-19T20:32:14.752Z,48.70
2023-05-19T20:34:50.305Z,54.90
2023-05-19T20:37:27.129Z,54.30
2023-05-19T20:40:01.353Z,52.80
2023-05-19T20:42:38.769Z,53.10
2023-05-19T20:45:14.297Z,54.60
2023-05-19T20:47:47.873Z,64.50
2023-05-19T20:50:24.939Z,56.40
2023-05-19T20:53:01.552Z,59.10
2023-05-19T20:55:39.103Z,62.40
2023-05-19T20:58:18.573Z,60.50
2023-05-19T21:00:58.234Z,55.90
2023-05-19T21:03:32.500Z,56.90
2023-05-19T21:06:07.544Z,57.70
2023-05-19T21:08:42.619Z,57.40
2023-05-19T21:11:16.104Z,53.50
2023-05-19T21:13:51.764Z,52.90
2023-05-19T21:16:26.726Z,58.00
2023-05-19T21:19:00.531Z,59.20
2023-05-19T21:21:34.492Z,59.60
2023-05-19T21:24:10.884Z,56.70
2023-05-19T21:26:49.748Z,58.60
2023-05-19T21:29:24.026Z,67.10
2023-05-19T21:32:00.122Z,57.90
2023-05-19T21:34:36.478Z,58.00
2023-05-19T21:37:12.129Z,60.70
2023-05-19T21:39:48.834Z,58.70
2023-05-19T21:42:23.103Z,58.50
2023-05-19T21:44:58.072Z,56.90
2023-05-19T21:47:33.721Z,58.80
2023-05-19T21:50:11.497Z,63.70
2023-05-19T21:52:45.136Z,60.10
2023-05-19T21:55:19.093Z,63.30
2023-05-19T21:57:52.609Z,59.50
2023-05-19T22:00:26.099Z,56.50
2023-05-19T22:02:59.532Z,63.70
2023-05-19T22:05:35.647Z,63.30
2023-05-19T22:08:09.332Z,64.00
2023-05-19T22:10:43.379Z,66.30
2023-05-19T22:13:16.726Z,62.20
2023-05-19T22:15:50.272Z,63.30
2023-05-19T22:18:24.130Z,66.00
2023-05-19T22:20:58.140Z,64.50
2023-05-19T22:23:31.574Z,60.20
2023-05-19T22:26:05.080Z,66.30
2023-05-19T22:28:38.694Z,69.90
2023-05-19T22:31:12.172Z,61.00
2023-05-19T22:33:45.636Z,59.90
2023-05-19T22:36:19.530Z,65.60
2023-05-19T22:38:53.071Z,62.00
2023-05-19T22:41:26.773Z,65.40
2023-05-19T22:44:00.124Z,58.40
2023-05-19T22:46:34.514Z,64.10
2023-05-19T22:49:07.867Z,58.50
2023-05-19T22:51:41.598Z,62.80
2023-05-19T22:54:14.976Z,51.80
2023-05-19T22:56:49.140Z,54.60
2023-05-19T22:59:22.796Z,59.50
2023-05-19T23:01:56.360Z,55.90
2023-05-19T23:04:30.005Z,56.30
2023-05-19T23:07:04.222Z,52.10
2023-05-19T23:09:37.587Z,61.30
2023-05-19T23:12:11.700Z,56.60
2023-05-19T23:14:45.205Z,53.90
2023-05-19T23:17:18.594Z,56.30
2023-05-19T23:19:52.075Z,60.80
2023-05-19T23:22:25.606Z,52.20
2023-05-19T23:24:59.116Z,53.40
2023-05-19T23:27:32.896Z,54.70
2023-05-19T23:30:07.625Z,56.60
2023-05-19T23:32:41.572Z,60.20
2023-05-19T23:35:17.654Z,59.70
2023-05-19T23:37:50.662Z,58.80
2023-05-19T23:40:24.433Z,56.50
2023-05-19T23:42:57.784Z,56.60
2023-05-19T23:45:30.903Z,60.90
2023-05-19T23:48:04.353Z,56.00
2023-05-19T23:50:37.619Z,54.10
2023-05-19T23:53:10.870Z,52.40
2023-05-19T23:55:43.987Z,53.90
2023-05-19T23:58:17.341Z,52.90
